Time;durP1;ratioP1;P1;durP2;ratioP2;P2;SDS_P1;SDS_P2;PMS_P1;PMS_P2;Temp;Humidity;BMP_temperature;BMP_pressure;BME280_temperature;BME280_humidity;BME280_pressure;Samples;Min_cycle;Max_cycle;Signal;HPM_P1;HPM_P2
2021/07/21 00:01:53;;;;;;;5.90;5.30;;;20.80;75.80;;;;;;4973039;28;20453;-86
2021/07/21 00:04:20;;;;;;;6.07;5.57;;;20.70;76.20;;;;;;4980142;28;20454;-85
2021/07/21 00:06:57;;;;;;;5.67;4.77;;;20.70;76.60;;;;;;4984466;28;20564;-87
2021/07/21 00:09:26;;;;;;;8.83;4.97;;;21.00;76.10;;;;;;4973505;28;20451;-86
2021/07/21 00:14:39;;;;;;;5.90;4.60;;;20.70;77.50;;;;;;4988207;28;20888;-85
2021/07/21 00:17:18;;;;;;;6.17;5.03;;;20.70;78.00;;;;;;4962781;28;20480;-86
2021/07/21 00:20:05;;;;;;;6.67;5.97;;;20.50;79.10;;;;;;4961551;28;20527;-86
2021/07/21 00:22:35;;;;;;;8.00;6.00;;;20.50;79.60;;;;;;4959723;28;20530;-87
2021/07/21 00:25:03;;;;;;;7.60;5.27;;;20.50;79.80;;;;;;4965714;28;20455;-86
2021/07/21 00:27:30;;;;;;;7.73;6.20;;;20.40;80.50;;;;;;5000055;28;20484;-86
2021/07/21 00:29:57;;;;;;;7.53;4.93;;;20.40;79.90;;;;;;4956577;28;20475;-86
2021/07/21 00:32:25;;;;;;;7.20;5.33;;;20.30;80.40;;;;;;4962852;28;20451;-86
2021/07/21 00:34:52;;;;;;;7.23;5.73;;;20.30;80.90;;;;;;4994144;28;20459;-82
2021/07/21 00:37:19;;;;;;;6.20;4.90;;;20.40;81.40;;;;;;4980210;28;20460;-84
2021/07/21 00:39:46;;;;;;;6.53;5.93;;;20.50;80.70;;;;;;4996533;28;20528;-86
2021/07/21 00:42:16;;;;;;;7.40;6.30;;;20.40;81.10;;;;;;4977459;28;20467;-87
2021/07/21 00:44:46;;;;;;;9.00;6.00;;;20.30;82.50;;;;;;4968126;28;20602;-89
2021/07/21 00:47:13;;;;;;;6.80;5.93;;;20.40;82.60;;;;;;4964929;28;20526;-86
2021/07/21 00:49:41;;;;;;;7.67;6.17;;;20.30;83.40;;;;;;4983274;28;20483;-87
2021/07/21 00:52:08;;;;;;;7.87;5.80;;;20.20;84.00;;;;;;4992485;28;20454;-87
2021/07/21 00:54:36;;;;;;;5.97;5.43;;;20.40;83.20;;;;;;4985020;28;20820;-86
2021/07/21 00:57:04;;;;;;;5.63;5.03;;;20.30;82.60;;;;;;4962353;28;20946;-86
2021/07/21 00:59:34;;;;;;;5.50;4.87;;;20.30;83.80;;;;;;4980752;28;20475;-87
2021/07/21 01:02:02;;;;;;;6.10;5.50;;;20.20;83.70;;;;;;4962941;28;20444;-87
2021/07/21 01:04:32;;;;;;;5.80;5.20;;;20.10;84.40;;;;;;4980970;28;20949;-87
2021/07/21 01:07:06;;;;;;;8.80;5.47;;;19.90;86.20;;;;;;4979569;28;20476;-87
2021/07/21 01:09:36;;;;;;;5.90;5.00;;;19.80;86.40;;;;;;4973649;28;20506;-86
2021/07/21 01:12:21;;;;;;;6.37;5.80;;;19.80;87.40;;;;;;4987936;28;20912;-85
2021/07/21 01:15:09;;;;;;;10.30;5.80;;;19.70;87.70;;;;;;4962882;28;20459;-87
2021/07/21 01:17:46;;;;;;;5.93;5.20;;;19.70;88.20;;;;;;4979398;28;20502;-86
2021/07/21 01:20:35;;;;;;;5.50;5.00;;;19.70;88.40;;;;;;4979041;28;20483;-86
2021/07/21 01:23:12;;;;;;;5.47;5.07;;;19.80;87.70;;;;;;4977667;28;20452;-86
2021/07/21 01:26:03;;;;;;;6.00;5.40;;;19.80;88.00;;;;;;4960801;28;21439;-84
2021/07/21 01:28:32;;;;;;;5.73;5.13;;;19.90;88.00;;;;;;4956997;28;20448;-86
2021/07/21 01:31:01;;;;;;;7.40;5.60;;;19.60;88.30;;;;;;4976513;28;20490;-88
2021/07/21 01:33:31;;;;;;;7.47;6.10;;;19.50;89.60;;;;;;4976379;28;20522;-86
2021/07/21 01:36:11;;;;;;;6.10;5.50;;;19.50;89.80;;;;;;4965330;28;20474;-86
2021/07/21 01:38:42;;;;;;;6.40;5.30;;;19.40;90.50;;;;;;4972640;28;20456;-87
2021/07/21 01:41:32;;;;;;;8.40;6.20;;;19.40;90.70;;;;;;4981863;28;20528;-85
2021/07/21 01:44:03;;;;;;;6.37;5.77;;;19.40;90.90;;;;;;4990767;28;20539;-86
2021/07/21 01:46:31;;;;;;;6.53;5.93;;;19.30;91.30;;;;;;4977158;28;20487;-86
2021/07/21 01:49:02;;;;;;;6.30;5.70;;;19.30;91.40;;;;;;4973416;28;20455;-84
2021/07/21 01:51:32;;;;;;;6.13;5.53;;;19.40;91.20;;;;;;4971307;28;20820;-85
2021/07/21 01:54:00;;;;;;;10.50;6.40;;;19.60;91.10;;;;;;4963771;28;20539;-86
2021/07/21 01:56:29;;;;;;;7.07;5.33;;;19.50;91.30;;;;;;4966287;28;20524;-86
2021/07/21 01:58:56;;;;;;;6.90;6.20;;;19.40;91.60;;;;;;4975183;28;20448;-87
2021/07/21 02:01:26;;;;;;;6.43;5.20;;;19.30;92.20;;;;;;4966664;28;21028;-87
2021/07/21 02:03:57;;;;;;;7.13;5.97;;;19.20;92.60;;;;;;4960445;28;20552;-84
2021/07/21 02:06:26;;;;;;;8.03;5.63;;;19.20;92.80;;;;;;4977531;28;20480;-85
2021/07/21 02:09:00;;;;;;;7.80;6.67;;;19.10;93.10;;;;;;4983026;28;20452;-85
2021/07/21 02:11:28;;;;;;;8.80;6.40;;;19.20;93.30;;;;;;4964390;28;20457;-86
2021/07/21 02:14:00;;;;;;;6.80;6.10;;;19.40;92.90;;;;;;4986013;28;20464;-87
2021/07/21 02:16:28;;;;;;;6.53;5.83;;;19.20;93.20;;;;;;4988562;28;20506;-86
2021/07/21 02:18:57;;;;;;;8.70;6.67;;;19.10;93.30;;;;;;4991220;28;20555;-86
2021/07/21 02:21:25;;;;;;;7.57;6.87;;;19.40;93.10;;;;;;4977626;28;20444;-85
2021/07/21 02:23:53;;;;;;;10.87;6.77;;;19.40;93.00;;;;;;4972002;28;20513;-85
2021/07/21 02:26:22;;;;;;;7.90;7.10;;;19.40;93.00;;;;;;4976102;28;20482;-86
2021/07/21 02:28:49;;;;;;;7.87;7.07;;;19.30;93.50;;;;;;4978418;28;20467;-84
2021/07/21 02:31:43;;;;;;;6.40;5.80;;;19.30;93.70;;;;;;4971179;28;20457;-86
2021/07/21 02:34:10;;;;;;;7.10;6.17;;;19.10;94.20;;;;;;4955018;28;20460;-85
2021/07/21 02:36:38;;;;;;;8.70;6.60;;;19.00;94.60;;;;;;4968571;28;20562;-85
2021/07/21 02:39:06;;;;;;;6.80;6.10;;;18.80;94.70;;;;;;4970222;28;20462;-86
2021/07/21 02:41:35;;;;;;;7.40;6.70;;;18.80;94.70;;;;;;4977664;28;20454;-85
2021/07/21 02:44:04;;;;;;;7.60;6.17;;;18.80;95.00;;;;;;4962637;28;20452;-85
2021/07/21 02:46:30;;;;;;;6.57;5.87;;;18.90;95.00;;;;;;4964180;28;20507;-86
2021/07/21 02:48:58;;;;;;;6.67;5.97;;;18.90;94.50;;;;;;4978414;28;20520;-85
2021/07/21 02:51:57;;;;;;;7.60;6.60;;;18.70;95.10;;;;;;4951632;28;20456;-85
2021/07/21 02:54:53;;;;;;;7.43;6.00;;;18.70;95.40;;;;;;4978505;28;20468;-84
2021/07/21 02:57:44;;;;;;;8.43;6.60;;;18.70;95.30;;;;;;4976875;28;20505;-84
2021/07/21 03:00:16;;;;;;;6.77;6.07;;;18.60;95.80;;;;;;4976764;28;20487;-85
2021/07/21 03:02:46;;;;;;;6.80;6.00;;;18.70;95.60;;;;;;4976543;28;20457;-85
2021/07/21 03:05:15;;;;;;;6.60;5.83;;;18.60;95.10;;;;;;4960042;28;20452;-85
2021/07/21 03:07:50;;;;;;;8.00;6.20;;;18.70;95.30;;;;;;4981055;28;20464;-85
2021/07/21 03:10:18;;;;;;;8.77;6.57;;;18.80;94.90;;;;;;4954375;29;20456;-85
2021/07/21 03:13:08;;;;;;;6.90;6.23;;;18.70;95.10;;;;;;4962758;28;20511;-85
2021/07/21 03:15:40;;;;;;;8.00;6.63;;;18.70;95.30;;;;;;4982718;28;20516;-86
2021/07/21 03:18:11;;;;;;;7.97;6.57;;;18.60;95.30;;;;;;4982501;28;20463;-85
2021/07/21 03:20:40;;;;;;;8.47;6.40;;;18.50;95.80;;;;;;4965177;28;20566;-86
2021/07/21 03:23:08;;;;;;;11.17;6.97;;;18.40;96.00;;;;;;4981320;28;20448;-85
2021/07/21 03:25:41;;;;;;;7.47;6.77;;;18.30;96.30;;;;;;4967266;28;20956;-84
2021/07/21 03:28:09;;;;;;;9.43;6.30;;;18.40;96.30;;;;;;4983260;28;20449;-85
2021/07/21 03:30:37;;;;;;;7.40;6.60;;;18.40;96.10;;;;;;4966896;28;20504;-85
2021/07/21 03:33:05;;;;;;;9.00;6.37;;;18.40;96.00;;;;;;4972106;28;20919;-84
2021/07/21 03:35:33;;;;;;;10.60;6.30;;;18.30;96.30;;;;;;4981324;28;20496;-84
2021/07/21 03:38:01;;;;;;;7.43;6.60;;;18.10;96.60;;;;;;5004988;28;20603;-87
2021/07/21 03:40:30;;;;;;;7.50;6.60;;;18.20;96.80;;;;;;4988193;28;20475;-86
2021/07/21 03:42:59;;;;;;;6.87;5.73;;;18.00;97.20;;;;;;4983597;28;20496;-86
2021/07/21 03:45:29;;;;;;;5.83;5.17;;;18.00;97.30;;;;;;4999466;28;20543;-84
2021/07/21 03:47:56;;;;;;;7.63;6.40;;;18.10;97.00;;;;;;4993348;28;20467;-90
2021/07/21 03:50:25;;;;;;;7.17;6.27;;;18.10;96.60;;;;;;4986666;28;20463;-85
2021/07/21 03:52:53;;;;;;;6.10;5.50;;;18.10;96.80;;;;;;4997159;28;20455;-86
2021/07/21 03:55:25;;;;;;;7.37;6.53;;;18.10;96.90;;;;;;4995269;28;20448;-85
2021/07/21 03:57:52;;;;;;;7.07;6.37;;;18.10;96.90;;;;;;4997616;28;20464;-87
2021/07/21 04:00:21;;;;;;;8.30;6.40;;;18.10;97.00;;;;;;4981174;28;20468;-86
2021/07/21 04:02:54;;;;;;;6.90;6.17;;;18.30;96.80;;;;;;4994402;28;20466;-86
2021/07/21 04:05:24;;;;;;;6.80;5.80;;;18.20;96.70;;;;;;4984447;28;20547;-86
2021/07/21 04:07:53;;;;;;;6.10;5.50;;;18.30;96.60;;;;;;4960482;28;20479;-86
2021/07/21 04:10:21;;;;;;;6.50;5.60;;;18.30;96.10;;;;;;4982546;28;20452;-86
2021/07/21 04:12:54;;;;;;;6.90;6.30;;;18.20;96.00;;;;;;4988263;28;20462;-86
2021/07/21 04:15:22;;;;;;;7.17;6.57;;;18.10;96.00;;;;;;4983702;28;20460;-84
2021/07/21 04:17:55;;;;;;;6.23;5.60;;;18.10;96.10;;;;;;4982861;28;20480;-86
2021/07/21 04:20:23;;;;;;;7.10;6.40;;;18.00;96.30;;;;;;4974576;28;20468;-87
2021/07/21 04:22:51;;;;;;;7.00;6.30;;;18.20;96.30;;;;;;4973955;28;20467;-86
2021/07/21 04:25:30;;;;;;;7.83;6.40;;;18.10;96.20;;;;;;4958979;28;21059;-86
2021/07/21 04:27:58;;;;;;;9.17;6.70;;;18.10;96.40;;;;;;4986184;28;20516;-86
2021/07/21 04:30:29;;;;;;;6.83;6.13;;;18.20;96.40;;;;;;4972762;28;20472;-85
2021/07/21 04:32:57;;;;;;;6.87;6.20;;;18.20;96.60;;;;;;4981520;28;20462;-86
2021/07/21 04:35:27;;;;;;;7.10;5.93;;;18.20;96.50;;;;;;4967857;28;20533;-86
2021/07/21 04:37:54;;;;;;;8.17;6.70;;;18.20;96.40;;;;;;4986022;28;20475;-85
2021/07/21 04:40:22;;;;;;;8.00;7.20;;;18.10;96.30;;;;;;4962841;28;20919;-86
2021/07/21 04:42:49;;;;;;;8.40;6.53;;;18.10;96.30;;;;;;4973541;28;20467;-85
2021/07/21 04:45:17;;;;;;;9.37;7.20;;;18.00;96.30;;;;;;4973592;28;20582;-86
2021/07/21 04:47:44;;;;;;;8.37;6.47;;;18.00;96.40;;;;;;4984623;28;20472;-85
2021/07/21 04:50:16;;;;;;;7.10;6.40;;;17.80;96.80;;;;;;4984342;28;20576;-86
2021/07/21 04:52:44;;;;;;;9.70;6.37;;;17.80;97.20;;;;;;4977980;28;20471;-86
2021/07/21 04:55:11;;;;;;;7.40;6.70;;;17.80;97.40;;;;;;4968146;28;20897;-86
2021/07/21 04:57:37;;;;;;;10.00;6.70;;;17.80;96.90;;;;;;4967001;28;20576;-86
2021/07/21 05:00:06;;;;;;;10.13;7.67;;;17.70;96.70;;;;;;4972387;28;20552;-86
2021/07/21 05:02:35;;;;;;;7.40;6.70;;;17.50;96.80;;;;;;4975667;28;20941;-86
2021/07/21 05:05:03;;;;;;;11.20;6.90;;;17.60;97.00;;;;;;4959441;28;20799;-85
2021/07/21 05:07:30;;;;;;;7.43;6.73;;;17.50;96.90;;;;;;4975436;28;20491;-85
2021/07/21 05:09:58;;;;;;;10.00;7.60;;;17.60;97.30;;;;;;4958110;28;20452;-85
2021/07/21 05:12:25;;;;;;;7.23;6.53;;;17.60;97.40;;;;;;4971897;28;20463;-86
2021/07/21 05:14:52;;;;;;;6.73;6.00;;;17.80;97.20;;;;;;4976776;28;20546;-86
2021/07/21 05:17:18;;;;;;;13.50;7.50;;;17.90;96.90;;;;;;4971223;28;20549;-85
2021/07/21 05:19:45;;;;;;;9.23;6.57;;;17.90;96.30;;;;;;4973534;28;20464;-85
2021/07/21 05:22:12;;;;;;;8.83;6.90;;;17.80;96.40;;;;;;4978430;28;20452;-86
2021/07/21 05:24:39;;;;;;;7.70;6.63;;;17.80;96.50;;;;;;4974820;28;20448;-85
2021/07/21 05:27:06;;;;;;;15.47;8.30;;;17.70;96.60;;;;;;4975320;28;20623;-86
2021/07/21 05:29:32;;;;;;;13.77;8.50;;;17.80;96.90;;;;;;4968003;28;20440;-87
2021/07/21 05:31:59;;;;;;;16.30;7.77;;;17.90;97.10;;;;;;4987080;28;20501;-86
2021/07/21 05:34:27;;;;;;;10.03;6.70;;;18.00;96.90;;;;;;4990028;28;20428;-87
2021/07/21 05:36:56;;;;;;;6.93;6.00;;;18.10;96.50;;;;;;4994286;28;21026;-88
2021/07/21 05:39:23;;;;;;;8.90;6.23;;;18.00;96.50;;;;;;4970892;28;20477;-86
2021/07/21 05:41:56;;;;;;;8.73;6.30;;;17.90;96.90;;;;;;4958680;28;20484;-87
2021/07/21 05:44:24;;;;;;;7.23;6.53;;;17.80;96.20;;;;;;4979842;28;20480;-87
2021/07/21 05:46:51;;;;;;;12.20;7.60;;;17.90;96.30;;;;;;4985489;28;20548;-87
2021/07/21 05:49:18;;;;;;;10.00;6.60;;;18.00;95.90;;;;;;4992330;28;20470;-83
2021/07/21 05:51:45;;;;;;;9.27;6.03;;;18.10;95.70;;;;;;5018744;23;20479;-87
2021/07/21 05:54:12;;;;;;;10.23;7.30;;;18.20;95.80;;;;;;4996977;28;20558;-87
2021/07/21 05:56:40;;;;;;;12.67;8.60;;;18.20;95.90;;;;;;5007534;28;20476;-87
2021/07/21 05:59:07;;;;;;;9.50;6.70;;;18.10;96.50;;;;;;5000050;28;20491;-87
2021/07/21 06:01:34;;;;;;;9.80;7.23;;;18.10;96.80;;;;;;4994452;28;20555;-86
2021/07/21 06:04:02;;;;;;;12.27;7.70;;;18.10;96.80;;;;;;4996391;28;20448;-86
2021/07/21 06:06:29;;;;;;;9.40;7.30;;;18.40;95.90;;;;;;4996272;28;20742;-86
2021/07/21 06:08:56;;;;;;;13.00;7.27;;;18.40;96.20;;;;;;4992672;28;20503;-85
2021/07/21 06:11:23;;;;;;;13.73;7.00;;;18.30;96.40;;;;;;4993504;28;20483;-85
2021/07/21 06:13:50;;;;;;;10.20;7.90;;;18.60;95.80;;;;;;4967206;28;20452;-87
2021/07/21 06:16:19;;;;;;;11.30;7.27;;;18.60;95.60;;;;;;4963621;28;20594;-87
2021/07/21 06:18:46;;;;;;;9.73;6.80;;;18.50;96.30;;;;;;4968810;28;20452;-85
2021/07/21 06:21:13;;;;;;;9.27;6.00;;;18.70;95.60;;;;;;4962278;28;20472;-85
2021/07/21 06:23:40;;;;;;;9.20;7.47;;;18.70;95.40;;;;;;4970591;28;20849;-87
2021/07/21 06:26:07;;;;;;;14.67;7.77;;;18.50;95.60;;;;;;4988735;28;20482;-85
2021/07/21 06:28:34;;;;;;;7.70;6.80;;;18.60;95.80;;;;;;4987216;28;20459;-86
2021/07/21 06:31:01;;;;;;;7.20;6.50;;;18.80;95.40;;;;;;4979658;28;20449;-86
2021/07/21 06:33:28;;;;;;;7.47;6.00;;;19.10;94.80;;;;;;4992408;28;20440;-84
2021/07/21 06:35:55;;;;;;;6.47;5.83;;;19.00;94.50;;;;;;4983812;28;20503;-86
2021/07/21 06:38:22;;;;;;;8.97;6.30;;;19.10;94.80;;;;;;4992255;28;21157;-85
2021/07/21 06:40:49;;;;;;;8.60;6.53;;;19.30;94.50;;;;;;4985137;28;20488;-85
2021/07/21 06:43:16;;;;;;;8.03;6.70;;;19.60;93.90;;;;;;4990302;28;20930;-85
2021/07/21 06:45:43;;;;;;;7.50;6.30;;;19.60;93.70;;;;;;4995878;28;20534;-87
2021/07/21 06:48:10;;;;;;;10.13;6.10;;;19.80;93.50;;;;;;4987992;28;20431;-86
2021/07/21 06:50:39;;;;;;;8.60;5.63;;;19.80;93.20;;;;;;4967113;28;20933;-87
2021/07/21 06:53:06;;;;;;;6.80;5.80;;;19.80;92.90;;;;;;4984278;28;20451;-87
2021/07/21 06:55:33;;;;;;;7.60;6.80;;;19.80;92.70;;;;;;4992842;28;20933;-86
2021/07/21 06:58:01;;;;;;;6.30;5.77;;;19.80;93.00;;;;;;4991888;28;20485;-86
2021/07/21 07:00:29;;;;;;;8.10;5.50;;;19.90;92.50;;;;;;4969193;28;20575;-86
2021/07/21 07:02:56;;;;;;;6.70;6.10;;;20.00;92.30;;;;;;4999400;28;20436;-88
2021/07/21 07:05:23;;;;;;;6.50;5.90;;;20.10;92.30;;;;;;5000591;28;20451;-85
2021/07/21 07:07:50;;;;;;;6.73;6.03;;;20.20;92.30;;;;;;4990575;28;20459;-86
2021/07/21 07:10:18;;;;;;;6.30;5.70;;;20.30;92.20;;;;;;4984351;28;20453;-85
2021/07/21 07:12:47;;;;;;;10.00;5.63;;;20.10;92.00;;;;;;4970225;28;20454;-87
2021/07/21 07:15:14;;;;;;;7.97;5.70;;;20.10;92.00;;;;;;4983805;28;20460;-87
2021/07/21 07:17:42;;;;;;;5.60;5.10;;;20.10;92.40;;;;;;4993904;28;20523;-86
2021/07/21 07:20:09;;;;;;;7.27;5.30;;;20.50;91.40;;;;;;4981288;28;20466;-86
2021/07/21 07:22:36;;;;;;;6.63;5.73;;;20.80;90.40;;;;;;4977373;28;20494;-87
2021/07/21 07:25:06;;;;;;;6.07;5.47;;;21.00;90.00;;;;;;4973026;28;20464;-85
2021/07/21 07:27:33;;;;;;;5.43;4.93;;;20.90;89.90;;;;;;4986307;28;21011;-88
2021/07/21 07:30:00;;;;;;;8.83;4.50;;;21.10;90.10;;;;;;4977984;28;20448;-86
2021/07/21 07:32:26;;;;;;;5.57;5.07;;;21.20;89.20;;;;;;4971163;28;21185;-86
2021/07/21 07:34:53;;;;;;;7.73;5.90;;;21.30;87.40;;;;;;4985108;28;20499;-87
2021/07/21 07:37:20;;;;;;;5.70;5.07;;;21.40;87.90;;;;;;4974821;28;20483;-86
2021/07/21 07:39:47;;;;;;;6.57;5.13;;;21.30;88.30;;;;;;4965903;28;20476;-86
2021/07/21 07:42:14;;;;;;;5.60;4.80;;;21.10;87.80;;;;;;4990667;28;20603;-87
2021/07/21 07:44:41;;;;;;;7.10;5.03;;;21.30;87.70;;;;;;4999578;28;20462;-84
2021/07/21 07:47:13;;;;;;;7.07;4.50;;;21.30;87.10;;;;;;4998289;28;20460;-85
2021/07/21 07:49:40;;;;;;;4.80;4.30;;;21.60;87.60;;;;;;4981472;28;20452;-83
2021/07/21 07:52:08;;;;;;;5.73;4.23;;;21.80;84.90;;;;;;4978111;28;20463;-87
2021/07/21 07:54:36;;;;;;;5.77;4.33;;;21.80;84.80;;;;;;4977169;28;20788;-85
2021/07/21 07:57:05;;;;;;;8.30;4.40;;;21.70;84.80;;;;;;4976748;28;20474;-86
2021/07/21 07:59:32;;;;;;;7.37;4.40;;;21.70;84.00;;;;;;4979442;28;20462;-87
2021/07/21 08:01:59;;;;;;;4.90;4.37;;;21.30;83.60;;;;;;4981045;28;20465;-87
2021/07/21 08:04:26;;;;;;;5.00;4.37;;;21.80;82.30;;;;;;4987495;28;20524;-88
2021/07/21 08:06:53;;;;;;;4.33;3.90;;;22.30;80.30;;;;;;4991587;28;20526;-86
2021/07/21 08:09:19;;;;;;;4.50;4.10;;;22.10;79.30;;;;;;4987690;28;20445;-86
2021/07/21 08:11:48;;;;;;;4.20;3.80;;;22.70;80.50;;;;;;4983502;28;20466;-86
2021/07/21 08:14:17;;;;;;;4.57;3.90;;;23.10;76.60;;;;;;4988092;28;20527;-87
2021/07/21 08:16:46;;;;;;;4.63;3.70;;;23.50;75.20;;;;;;4969373;28;20554;-84
2021/07/21 08:19:12;;;;;;;5.53;3.43;;;23.70;73.00;;;;;;4985047;28;20520;-84
2021/07/21 08:21:39;;;;;;;5.33;3.80;;;24.10;70.10;;;;;;4967100;28;20511;-84
2021/07/21 08:24:07;;;;;;;5.13;3.50;;;23.80;70.30;;;;;;4967186;28;20463;-86
2021/07/21 08:26:33;;;;;;;3.70;3.40;;;24.50;68.70;;;;;;4983405;28;20476;-85
2021/07/21 08:29:01;;;;;;;3.43;2.97;;;24.70;67.90;;;;;;4985155;28;21749;-86
2021/07/21 08:31:28;;;;;;;5.03;3.93;;;24.60;65.00;;;;;;4969043;28;20891;-85
2021/07/21 08:34:00;;;;;;;5.07;3.43;;;25.10;62.60;;;;;;4983918;28;20502;-86
2021/07/21 08:36:32;;;;;;;3.07;2.87;;;25.60;60.10;;;;;;4980518;28;20456;-87
2021/07/21 08:38:59;;;;;;;3.50;3.20;;;25.60;57.90;;;;;;4998504;28;20448;-87
2021/07/21 08:41:26;;;;;;;2.90;2.70;;;25.70;57.50;;;;;;4997228;28;20470;-86
2021/07/21 08:43:54;;;;;;;4.20;2.83;;;26.60;55.50;;;;;;4997204;28;20456;-87
2021/07/21 08:46:22;;;;;;;4.77;3.77;;;26.60;53.60;;;;;;4979568;28;20480;-87
2021/07/21 08:48:52;;;;;;;3.80;3.50;;;26.90;53.20;;;;;;4985163;28;20452;-87
2021/07/21 08:51:21;;;;;;;3.60;3.30;;;27.50;52.50;;;;;;4965402;28;20459;-87
2021/07/21 08:53:52;;;;;;;3.83;3.53;;;29.20;48.80;;;;;;4984377;28;20479;-87
2021/07/21 08:56:20;;;;;;;3.30;3.00;;;29.70;46.30;;;;;;4982116;28;20476;-86
2021/07/21 08:58:49;;;;;;;3.90;3.60;;;30.20;45.20;;;;;;4985586;28;20456;-88
2021/07/21 09:01:17;;;;;;;3.80;3.47;;;31.10;43.70;;;;;;4996614;28;20476;-86
2021/07/21 09:03:45;;;;;;;5.40;3.50;;;31.90;42.40;;;;;;4977434;28;20463;-86
2021/07/21 09:06:13;;;;;;;3.47;2.97;;;32.50;41.70;;;;;;4983845;28;20534;-86
2021/07/21 09:08:41;;;;;;;3.57;3.27;;;33.70;38.80;;;;;;4966353;28;20466;-87
2021/07/21 09:11:10;;;;;;;3.90;3.30;;;33.40;37.40;;;;;;4979832;28;20471;-86
2021/07/21 09:13:38;;;;;;;3.67;3.27;;;33.40;37.70;;;;;;4979266;28;20456;-86
2021/07/21 09:16:06;;;;;;;3.97;3.30;;;33.80;37.00;;;;;;4979020;28;20881;-85
2021/07/21 09:18:48;;;;;;;4.10;3.70;;;34.00;36.40;;;;;;4976792;28;20485;-85
2021/07/21 09:21:17;;;;;;;4.57;4.13;;;33.60;36.50;;;;;;4976278;28;20487;-86
2021/07/21 09:23:47;;;;;;;4.07;3.73;;;33.40;36.60;;;;;;4975388;28;22940;-86
2021/07/21 09:26:32;;;;;;;4.40;4.00;;;33.60;36.40;;;;;;4975859;28;20480;-85
2021/07/21 09:29:01;;;;;;;5.03;3.83;;;33.70;35.80;;;;;;4976821;28;20858;-86
2021/07/21 09:31:42;;;;;;;4.10;3.70;;;32.90;36.40;;;;;;4978221;28;20460;-86
2021/07/21 09:34:18;;;;;;;5.10;4.00;;;32.30;37.50;;;;;;4981631;28;20444;-85
2021/07/21 09:36:45;;;;;;;5.20;4.70;;;32.40;37.60;;;;;;4981134;28;20543;-86
2021/07/21 09:39:13;;;;;;;4.80;4.00;;;32.70;36.70;;;;;;4977156;28;20452;-86
2021/07/21 09:41:52;;;;;;;6.03;4.17;;;32.40;37.00;;;;;;4980630;28;20483;-87
2021/07/21 09:44:33;;;;;;;4.33;4.03;;;32.30;36.70;;;;;;4981256;28;21087;-85
2021/07/21 09:47:13;;;;;;;4.73;4.33;;;30.90;38.30;;;;;;4961296;28;20498;-85
2021/07/21 09:49:41;;;;;;;4.60;4.20;;;30.30;40.50;;;;;;4985802;28;20454;-85
2021/07/21 09:52:23;;;;;;;4.37;3.97;;;31.10;39.40;;;;;;4962768;28;20486;-86
2021/07/21 09:55:05;;;;;;;4.33;3.93;;;32.20;38.70;;;;;;4978763;28;20539;-86
2021/07/21 09:57:33;;;;;;;4.23;3.83;;;33.40;36.40;;;;;;4975831;28;20557;-87
2021/07/21 10:00:15;;;;;;;4.90;4.50;;;33.10;36.30;;;;;;4978015;28;20491;-88
2021/07/21 10:02:42;;;;;;;5.47;4.27;;;32.00;37.10;;;;;;4961811;28;20540;-89
2021/07/21 10:05:12;;;;;;;5.37;4.30;;;32.20;37.10;;;;;;4963830;28;20535;-88
2021/07/21 10:07:49;;;;;;;5.00;4.20;;;32.20;36.90;;;;;;4979389;28;20476;-87
2021/07/21 10:10:32;;;;;;;4.73;4.33;;;32.10;37.90;;;;;;4964052;28;20448;-88
2021/07/21 10:13:07;;;;;;;4.47;4.10;;;31.90;37.70;;;;;;4963077;28;20463;-88
2021/07/21 10:15:34;;;;;;;4.27;3.93;;;31.50;38.40;;;;;;4978835;28;20484;-88
2021/07/21 10:18:23;;;;;;;4.20;3.80;;;31.90;37.40;;;;;;5116308;23;20510;-87
2021/07/21 10:20:50;;;;;;;4.63;4.20;;;32.00;37.40;;;;;;4973281;28;20451;-87
2021/07/21 10:23:18;;;;;;;5.23;4.73;;;31.90;37.30;;;;;;4978482;28;20503;-87
2021/07/21 10:25:56;;;;;;;4.20;3.90;;;32.20;37.20;;;;;;4996466;28;21385;-86
2021/07/21 10:28:24;;;;;;;5.00;4.50;;;32.70;37.10;;;;;;4983072;28;20448;-85
2021/07/21 10:30:55;;;;;;;5.30;4.13;;;33.40;35.80;;;;;;4978136;28;20483;-86
2021/07/21 10:33:32;;;;;;;4.40;3.97;;;33.30;35.30;;;;;;4981028;28;20458;-85
2021/07/21 10:36:02;;;;;;;5.90;4.60;;;33.00;35.80;;;;;;4978088;28;20484;-86
2021/07/21 10:38:29;;;;;;;4.33;3.90;;;32.40;37.00;;;;;;4976304;28;20452;-86
2021/07/21 10:40:56;;;;;;;4.80;4.40;;;32.30;37.40;;;;;;4992813;28;20862;-86
2021/07/21 10:43:28;;;;;;;4.87;4.47;;;32.20;36.90;;;;;;4978242;28;20520;-87
2021/07/21 10:45:55;;;;;;;4.77;4.43;;;32.20;38.10;;;;;;4972517;28;20460;-86
2021/07/21 10:48:46;;;;;;;5.80;4.00;;;32.40;38.20;;;;;;4976497;28;20459;-86
2021/07/21 10:51:42;;;;;;;4.47;4.07;;;32.00;38.30;;;;;;4976300;28;20445;-86
2021/07/21 10:54:30;;;;;;;5.03;3.90;;;32.40;38.40;;;;;;4972314;28;20459;-87
2021/07/21 11:00:16;;;;;;;4.30;4.00;;;32.40;36.90;;;;;;4976227;28;20455;-84
2021/07/21 11:02:44;;;;;;;4.40;4.10;;;32.70;37.20;;;;;;4982578;28;20496;-86
2021/07/21 11:05:40;;;;;;;5.27;4.87;;;33.10;36.50;;;;;;4985985;28;20467;-86
2021/07/21 11:08:18;;;;;;;5.60;4.40;;;32.40;36.90;;;;;;4986521;28;20563;-87
2021/07/21 11:10:48;;;;;;;6.57;5.37;;;31.00;38.20;;;;;;5001766;28;20439;-87
2021/07/21 11:13:27;;;;;;;6.57;6.07;;;29.90;39.90;;;;;;4983748;28;20471;-87
2021/07/21 11:15:56;;;;;;;5.07;4.67;;;30.60;40.80;;;;;;4998187;28;20447;-87
2021/07/21 11:18:23;;;;;;;5.17;4.70;;;30.80;39.90;;;;;;4986629;28;20464;-86
2021/07/21 11:21:06;;;;;;;6.00;5.50;;;30.40;40.10;;;;;;5009496;28;20476;-88
2021/07/21 11:23:45;;;;;;;5.90;5.37;;;29.90;40.40;;;;;;5015979;28;20490;-86
2021/07/21 11:26:41;;;;;;;6.00;5.50;;;29.20;42.00;;;;;;5015593;28;20631;-86
2021/07/21 11:29:23;;;;;;;5.63;5.13;;;29.20;42.70;;;;;;5014384;28;20514;-88
2021/07/21 11:32:05;;;;;;;7.10;5.77;;;29.50;42.30;;;;;;4984774;28;20523;-86
2021/07/21 11:34:40;;;;;;;5.60;5.10;;;29.20;42.70;;;;;;5004123;28;20436;-86
2021/07/21 11:37:27;;;;;;;5.83;5.33;;;28.80;43.10;;;;;;4995488;28;20485;-86
2021/07/21 11:39:58;;;;;;;6.07;5.57;;;28.70;43.40;;;;;;5013682;28;20451;-85
2021/07/21 11:42:31;;;;;;;5.70;5.10;;;29.30;43.00;;;;;;5013524;28;20574;-85
2021/07/21 11:45:13;;;;;;;5.60;5.10;;;29.50;42.30;;;;;;5000521;28;20465;-86
2021/07/21 11:47:43;;;;;;;6.10;5.50;;;29.70;41.80;;;;;;4992413;28;20870;-86
2021/07/21 11:50:40;;;;;;;6.63;6.03;;;29.60;42.60;;;;;;4976041;28;20820;-87
2021/07/21 11:53:09;;;;;;;6.00;5.50;;;29.90;42.00;;;;;;4972841;28;21077;-85
2021/07/21 11:55:37;;;;;;;6.07;5.57;;;30.10;41.60;;;;;;4984905;28;20519;-87
2021/07/21 11:58:11;;;;;;;6.53;5.93;;;30.00;41.40;;;;;;5012807;28;20522;-88
2021/07/21 12:00:40;;;;;;;6.40;5.80;;;30.00;41.70;;;;;;5015682;28;20504;-87
2021/07/21 12:03:07;;;;;;;6.20;5.70;;;30.40;41.40;;;;;;5010697;28;20482;-86
2021/07/21 12:05:34;;;;;;;5.90;5.40;;;31.20;40.20;;;;;;4662822;28;10000276;-86
2021/07/21 12:08:19;;;;;;;6.53;6.03;;;31.80;39.30;;;;;;5008589;28;20263;-85
2021/07/21 12:10:46;;;;;;;6.63;6.03;;;31.70;38.90;;;;;;4989216;28;20451;-86
2021/07/21 12:13:19;;;;;;;7.00;6.30;;;31.90;39.30;;;;;;5010237;28;20487;-87
2021/07/21 12:15:59;;;;;;;6.07;5.57;;;32.90;38.00;;;;;;4996564;28;20451;-86
2021/07/21 12:18:26;;;;;;;6.43;5.83;;;33.30;36.90;;;;;;5012960;28;20465;-86
2021/07/21 12:20:53;;;;;;;6.53;5.93;;;33.50;36.70;;;;;;5009846;28;20447;-86
2021/07/21 12:23:21;;;;;;;6.70;6.07;;;33.30;36.80;;;;;;5001162;28;20481;-85
2021/07/21 12:25:48;;;;;;;6.70;6.10;;;32.80;36.90;;;;;;5000523;28;20796;-87
2021/07/21 12:28:14;;;;;;;6.83;6.13;;;32.70;37.40;;;;;;4995454;28;20456;-86
2021/07/21 12:30:41;;;;;;;7.10;6.40;;;32.80;36.80;;;;;;4995490;28;20463;-85
2021/07/21 12:33:08;;;;;;;7.33;6.70;;;32.40;37.60;;;;;;4997356;28;20467;-87
2021/07/21 12:35:35;;;;;;;7.40;6.37;;;32.70;37.20;;;;;;4998139;28;20467;-86
2021/07/21 12:38:03;;;;;;;6.27;5.73;;;31.90;37.70;;;;;;4988647;28;20485;-87
2021/07/21 12:40:32;;;;;;;7.27;6.57;;;31.30;39.20;;;;;;4981379;28;21039;-85
2021/07/21 12:43:02;;;;;;;7.17;6.40;;;30.90;40.00;;;;;;4998770;28;20570;-87
2021/07/21 12:45:32;;;;;;;6.83;6.23;;;30.90;39.80;;;;;;4994096;28;20466;-85
2021/07/21 12:48:01;;;;;;;6.83;6.23;;;31.50;39.80;;;;;;4992000;28;20467;-86
2021/07/21 12:50:38;;;;;;;7.07;6.43;;;31.40;39.70;;;;;;4997554;28;20839;-85
2021/07/21 12:53:16;;;;;;;7.87;7.17;;;31.90;39.10;;;;;;4963835;28;20494;-87
2021/07/21 12:55:45;;;;;;;6.97;6.17;;;31.70;38.90;;;;;;4999052;28;20498;-86
2021/07/21 12:58:14;;;;;;;7.13;6.50;;;31.50;39.80;;;;;;5001515;28;20511;-86
2021/07/21 13:00:51;;;;;;;7.03;6.43;;;32.20;39.60;;;;;;5011555;28;20487;-87
2021/07/21 13:03:23;;;;;;;6.67;6.13;;;32.20;39.30;;;;;;5017367;28;20462;-85
2021/07/21 13:05:54;;;;;;;7.10;6.40;;;32.20;37.90;;;;;;5017180;28;20435;-86
2021/07/21 13:08:29;;;;;;;6.50;5.90;;;31.70;39.50;;;;;;4999008;28;20443;-85
2021/07/21 13:11:12;;;;;;;8.43;7.63;;;32.10;38.30;;;;;;5015731;28;20497;-86